Time;durP1;ratioP1;P1;durP2;ratioP2;P2;SDS_P1;SDS_P2;PMS_P1;PMS_P2;Temp;Humidity;BMP_temperature;BMP_pressure;BME280_temperature;BME280_humidity;BME280_pressure;Samples;Min_cycle;Max_cycle;Signal;HPM_P1;HPM_P2
2022/01/21 00:02:08;;;;;;;12.48;4.32;;;;;;;1.32;78.58;97755.25;5055402;28;20430;-82
2022/01/21 00:04:36;;;;;;;12.75;4.45;;;;;;;1.33;78.54;97762.03;5055348;28;20140;-81
2022/01/21 00:07:04;;;;;;;10.18;3.90;;;;;;;1.31;78.19;97758.75;5055510;28;20052;-80
2022/01/21 00:09:32;;;;;;;8.65;3.42;;;;;;;1.30;77.82;97756.28;5055374;28;20057;-82
2022/01/21 00:11:59;;;;;;;9.43;3.70;;;;;;;1.28;77.77;97758.13;5054238;28;20049;-80
2022/01/21 00:14:27;;;;;;;11.05;4.70;;;;;;;1.30;78.33;97758.84;5055796;28;20062;-82
2022/01/21 00:16:54;;;;;;;9.07;4.03;;;;;;;1.31;78.42;97761.34;5055072;28;20428;-80
2022/01/21 00:19:25;;;;;;;9.18;4.15;;;;;;;1.31;78.36;97758.75;5055555;28;20132;-80
2022/01/21 00:30:23;;;;;;;13.07;4.40;;;;;;;1.40;78.08;97762.47;5053711;28;20045;-79
2022/01/21 00:32:52;;;;;;;11.10;4.47;;;;;;;1.42;78.37;97760.63;5054904;28;20049;-82
2022/01/21 00:35:21;;;;;;;9.57;4.30;;;;;;;1.43;78.34;97762.31;5053606;28;20045;-81
2022/01/21 00:37:50;;;;;;;10.73;5.68;;;;;;;1.43;78.66;97768.25;5053731;28;20056;-78
2022/01/21 00:40:22;;;;;;;10.70;4.22;;;;;;;1.43;78.54;97768.25;5054353;28;20052;-80
2022/01/21 00:43:05;;;;;;;8.65;4.47;;;;;;;1.43;78.21;97767.44;5054853;28;20060;-80
2022/01/21 00:45:33;;;;;;;9.70;3.80;;;;;;;1.41;78.61;97771.84;5054442;28;20572;-80
2022/01/21 00:48:01;;;;;;;10.25;4.43;;;;;;;1.39;78.64;97773.69;5054269;28;20045;-78
2022/01/21 00:50:30;;;;;;;9.68;4.18;;;;;;;1.39;78.78;97773.69;5053310;28;20049;-78
2022/01/21 00:52:58;;;;;;;16.42;5.45;;;;;;;1.39;78.54;97776.25;5054458;28;20056;-81
2022/01/21 00:55:25;;;;;;;8.18;4.20;;;;;;;1.36;78.49;97773.91;5054055;28;20418;-79
2022/01/21 00:57:53;;;;;;;7.80;3.72;;;;;;;1.35;78.14;97779.94;5053580;28;20049;-82
2022/01/21 01:00:21;;;;;;;11.15;5.13;;;;;;;1.34;78.59;97783.44;5054625;28;20060;-78
2022/01/21 01:02:48;;;;;;;9.63;4.00;;;;;;;1.32;78.34;97778.41;5054199;28;20044;-82
2022/01/21 01:05:16;;;;;;;12.43;4.38;;;;;;;1.31;78.30;97778.47;5054177;28;20060;-81
2022/01/21 01:07:45;;;;;;;11.27;4.85;;;;;;;1.29;78.04;97791.44;5054346;28;20053;-82
2022/01/21 01:10:19;;;;;;;6.97;3.80;;;;;;;1.28;78.33;97797.50;5054019;28;20053;-80
2022/01/21 01:12:57;;;;;;;7.88;4.60;;;;;;;1.27;77.32;97795.00;5054748;28;20052;-81
2022/01/21 01:20:55;;;;;;;10.45;4.18;;;;;;;1.22;77.89;97819.28;5057677;28;20064;-82
2022/01/21 01:23:28;;;;;;;14.55;5.15;;;;;;;1.20;78.41;97812.53;5057346;28;20045;-79
2022/01/21 01:28:38;;;;;;;8.43;4.00;;;;;;;1.18;78.04;97816.97;5034270;28;20388;-81
2022/01/21 01:31:06;;;;;;;8.27;4.15;;;;;;;1.17;78.13;97813.56;5057467;28;20053;-80
2022/01/21 01:33:39;;;;;;;8.15;4.25;;;;;;;1.15;78.41;97805.13;5057025;28;20045;-81
2022/01/21 01:36:09;;;;;;;13.13;4.45;;;;;;;1.17;78.67;97818.69;5057280;28;20053;-80
2022/01/21 01:39:03;;;;;;;7.80;4.10;;;;;;;1.17;77.30;97811.00;5057094;28;20048;-79
2022/01/21 01:41:36;;;;;;;11.80;4.30;;;;;;;1.17;78.02;97813.56;5057254;28;20114;-81
2022/01/21 01:49:36;;;;;;;8.05;4.15;;;;;;;1.21;78.93;97804.75;5057275;28;20053;-79
2022/01/21 01:52:07;;;;;;;12.02;4.50;;;;;;;1.21;77.21;97806.50;5057228;28;20056;-80
2022/01/21 01:54:39;;;;;;;10.18;4.40;;;;;;;1.18;77.92;97802.38;5057583;28;20495;-80
2022/01/21 01:57:07;;;;;;;9.45;4.72;;;;;;;1.21;78.43;97809.06;5057742;28;20481;-84
2022/01/21 01:59:35;;;;;;;10.88;4.55;;;;;;;1.22;78.79;97816.69;5058377;28;20053;-82
2022/01/21 02:02:05;;;;;;;13.18;4.78;;;;;;;1.25;78.81;97815.69;5057303;28;20060;-80
2022/01/21 02:04:34;;;;;;;11.70;4.10;;;;;;;1.26;78.85;97812.19;5057499;28;20470;-80
2022/01/21 02:07:01;;;;;;;10.48;4.60;;;;;;;1.26;79.01;97808.78;5056797;28;20068;-80
2022/01/21 02:09:30;;;;;;;19.80;5.38;;;;;;;1.24;79.04;97804.56;5056339;28;20052;-81
2022/01/21 02:11:59;;;;;;;11.35;4.45;;;;;;;1.24;78.81;97814.84;5057250;28;20420;-81
2022/01/21 02:14:30;;;;;;;13.88;4.53;;;;;;;1.23;78.52;97802.91;5057021;28;20041;-80
2022/01/21 02:17:16;;;;;;;13.00;4.95;;;;;;;1.24;78.56;97803.72;5057326;28;20048;-79
2022/01/21 02:22:34;;;;;;;10.00;4.70;;;;;;;1.27;78.75;97813.00;5057543;28;20052;-80
2022/01/21 02:25:15;;;;;;;10.30;4.60;;;;;;;1.27;79.23;97813.84;5057465;28;20049;-79
2022/01/21 02:27:44;;;;;;;10.98;4.22;;;;;;;1.28;78.59;97814.66;5056882;28;20052;-78
2022/01/21 02:30:18;;;;;;;10.50;5.05;;;;;;;1.26;78.51;97808.78;5057914;28;20056;-82
2022/01/21 02:32:48;;;;;;;20.70;5.30;;;;;;;1.24;78.90;97817.41;5058058;28;20084;-81
2022/01/21 02:35:16;;;;;;;8.73;4.80;;;;;;;1.22;78.05;97821.00;5068877;28;20045;-80
2022/01/21 02:37:46;;;;;;;8.60;4.15;;;;;;;1.20;78.12;97828.81;5071784;28;20045;-79
2022/01/21 02:40:15;;;;;;;12.18;4.25;;;;;;;1.20;78.62;97823.69;5071342;28;20495;-79
2022/01/21 02:42:43;;;;;;;8.85;3.65;;;;;;;1.20;78.25;97821.09;5069637;28;20059;-81
2022/01/21 02:45:14;;;;;;;9.55;3.95;;;;;;;1.19;78.58;97811.72;5068961;28;20041;-80
2022/01/21 02:47:42;;;;;;;9.57;4.32;;;;;;;1.20;78.13;97822.81;5064679;28;20052;-78
2022/01/21 02:50:11;;;;;;;8.25;4.15;;;;;;;1.19;77.41;97818.63;5068464;28;20056;-79
2022/01/21 02:52:53;;;;;;;10.88;4.35;;;;;;;1.19;77.79;97816.88;5068764;28;20778;-79
2022/01/21 02:55:23;;;;;;;8.65;4.43;;;;;;;1.19;78.40;97816.06;5070679;28;20356;-78
2022/01/21 02:57:50;;;;;;;9.90;4.88;;;;;;;1.18;77.78;97815.22;5071545;28;20049;-79
2022/01/21 03:00:18;;;;;;;9.70;4.28;;;;;;;1.18;78.03;97822.94;5072089;28;20056;-79
2022/01/21 03:02:46;;;;;;;13.60;4.70;;;;;;;1.16;78.25;97827.34;5071402;28;20060;-79
2022/01/21 03:05:15;;;;;;;13.77;4.88;;;;;;;1.17;79.09;97833.31;5069493;28;20052;-80
2022/01/21 03:07:44;;;;;;;10.23;4.70;;;;;;;1.15;78.40;97833.38;5069719;28;20045;-80
2022/01/21 03:10:13;;;;;;;8.18;4.82;;;;;;;1.15;78.37;97841.09;5070105;28;20049;-79
2022/01/21 03:12:42;;;;;;;8.63;4.28;;;;;;;1.15;78.61;97843.66;5071384;28;20049;-79
2022/01/21 03:15:10;;;;;;;9.60;4.55;;;;;;;1.10;78.01;97844.88;5070863;28;20052;-82
2022/01/21 03:17:37;;;;;;;9.35;4.97;;;;;;;1.08;78.74;97836.44;5071211;28;20056;-79
2022/01/21 03:20:07;;;;;;;13.88;4.93;;;;;;;1.08;78.35;97841.56;5070716;28;20519;-80
2022/01/21 03:22:36;;;;;;;9.27;4.43;;;;;;;1.08;78.02;97839.81;5070101;28;20108;-81
2022/01/21 03:25:04;;;;;;;8.77;4.70;;;;;;;1.07;78.12;97842.47;5069243;28;20053;-80
2022/01/21 03:27:32;;;;;;;11.52;5.00;;;;;;;1.10;78.61;97852.59;5069284;28;20059;-81
2022/01/21 03:30:03;;;;;;;13.00;5.47;;;;;;;1.13;78.77;97852.41;5068961;28;20332;-78
2022/01/21 03:32:31;;;;;;;15.85;6.85;;;;;;;1.16;79.04;97847.91;5068809;28;20049;-80
2022/01/21 03:34:59;;;;;;;12.57;5.20;;;;;;;1.16;78.75;97849.63;5067997;28;20041;-81
2022/01/21 03:37:27;;;;;;;10.90;4.05;;;;;;;1.16;78.46;97858.19;5067059;28;20064;-78
2022/01/21 03:39:55;;;;;;;7.63;4.20;;;;;;;1.18;78.51;97856.34;5067306;28;20045;-80
2022/01/21 03:42:22;;;;;;;11.88;5.10;;;;;;;1.21;79.12;97860.47;5065721;28;20052;-82
2022/01/21 03:44:50;;;;;;;10.07;4.30;;;;;;;1.19;78.76;97858.00;5065846;28;20112;-80
2022/01/21 03:47:18;;;;;;;10.65;4.55;;;;;;;1.21;78.76;97868.19;5062678;28;20053;-79
2022/01/21 03:49:53;;;;;;;13.50;4.50;;;;;;;1.21;78.44;97865.63;5062701;28;20055;-80
2022/01/21 03:52:21;;;;;;;12.82;4.85;;;;;;;1.21;78.21;97865.63;5064040;28;20053;-79
2022/01/21 03:54:49;;;;;;;11.18;4.72;;;;;;;1.20;78.12;97864.81;5063244;28;20056;-78
2022/01/21 03:57:16;;;;;;;11.30;5.20;;;;;;;1.20;78.51;97880.22;5063558;28;20053;-81
2022/01/21 03:59:44;;;;;;;12.73;4.65;;;;;;;1.22;78.29;97880.97;5070467;28;20049;-81
2022/01/21 04:02:11;;;;;;;11.38;5.22;;;;;;;1.22;78.26;97882.69;5070188;28;20052;-79
2022/01/21 04:04:40;;;;;;;8.23;4.45;;;;;;;1.22;78.84;97873.25;5070720;28;20079;-81
2022/01/21 04:07:08;;;;;;;9.18;4.13;;;;;;;1.21;78.79;97874.16;5069707;28;20052;-79
2022/01/21 04:09:35;;;;;;;13.02;4.68;;;;;;;1.23;78.23;97874.88;5069404;28;20254;-80
2022/01/21 04:12:03;;;;;;;13.90;4.88;;;;;;;1.26;77.88;97867.91;5069525;28;20063;-82
2022/01/21 04:14:32;;;;;;;12.35;5.28;;;;;;;1.31;78.20;97868.44;5068774;28;20051;-80
2022/01/21 04:17:00;;;;;;;10.40;5.15;;;;;;;1.32;78.25;97870.13;5067547;28;20045;-80
2022/01/21 04:19:27;;;;;;;11.20;5.38;;;;;;;1.35;78.56;97877.63;5067726;28;20053;-78
2022/01/21 04:21:56;;;;;;;12.48;5.47;;;;;;;1.33;77.82;97880.28;5067056;28;20052;-81
2022/01/21 04:24:24;;;;;;;13.13;5.28;;;;;;;1.35;79.11;97878.44;5066254;28;20048;-79
2022/01/21 04:26:52;;;;;;;15.15;5.90;;;;;;;1.40;78.77;97878.16;5066635;28;20056;-82
2022/01/21 04:29:19;;;;;;;14.25;5.00;;;;;;;1.42;78.30;97884.03;5066205;28;20049;-82
2022/01/21 04:31:47;;;;;;;12.75;5.50;;;;;;;1.41;77.61;97884.97;5067155;28;20063;-80
2022/01/21 04:34:14;;;;;;;10.30;4.43;;;;;;;1.39;77.62;97885.06;5065648;28;20060;-81
2022/01/21 04:36:43;;;;;;;9.10;5.10;;;;;;;1.41;77.76;97887.56;5065826;28;20247;-80
2022/01/21 04:39:16;;;;;;;15.73;5.65;;;;;;;1.41;77.79;97883.22;5065879;28;20090;-80
2022/01/21 04:47:15;;;;;;;12.38;5.68;;;;;;;1.43;78.57;97890.84;5065436;28;20531;-79
2022/01/21 04:47:27;;;;;;;7.43;5.00;;;;;;;1.48;78.39;97893.97;5064985;28;20053;-79
2022/01/21 04:49:55;;;;;;;12.60;5.63;;;;;;;1.44;78.05;97888.22;5065461;28;20048;-80
2022/01/21 04:52:23;;;;;;;13.80;5.25;;;;;;;1.43;78.07;97906.28;5067047;28;20059;-80
2022/01/21 04:54:53;;;;;;;8.57;4.88;;;;;;;1.41;78.60;97903.78;5069219;28;20060;-80
2022/01/21 04:57:20;;;;;;;13.90;5.60;;;;;;;1.40;78.44;97906.44;5068497;28;20052;-80
2022/01/21 04:59:48;;;;;;;9.27;5.13;;;;;;;1.38;78.43;97904.00;5068672;28;20522;-81
2022/01/21 05:02:16;;;;;;;11.60;5.13;;;;;;;1.35;78.35;97908.47;5074805;28;20079;-80
2022/01/21 05:04:44;;;;;;;15.95;5.00;;;;;;;1.33;78.07;97900.03;5074397;28;20131;-80
2022/01/21 05:07:14;;;;;;;9.00;5.18;;;;;;;1.32;78.35;97904.34;5073383;28;20526;-80
2022/01/21 05:09:41;;;;;;;9.68;5.18;;;;;;;1.33;78.70;97910.31;5073526;28;20049;-80
2022/01/21 05:12:13;;;;;;;11.43;4.95;;;;;;;1.37;79.05;97919.50;5072994;28;20049;-82
2022/01/21 05:14:48;;;;;;;13.30;5.25;;;;;;;1.38;79.18;97916.03;5071922;28;20052;-82
2022/01/21 05:17:16;;;;;;;12.85;4.80;;;;;;;1.39;79.42;97922.81;5071084;28;20052;-80
2022/01/21 05:19:44;;;;;;;15.43;5.20;;;;;;;1.40;79.76;97922.72;5070674;28;20519;-80
2022/01/21 05:22:11;;;;;;;7.13;4.55;;;;;;;1.42;79.61;97930.31;5069753;28;20049;-80
2022/01/21 05:24:39;;;;;;;14.32;6.18;;;;;;;1.44;79.39;97933.63;5071291;28;20073;-80
2022/01/21 05:27:07;;;;;;;17.02;5.95;;;;;;;1.45;79.28;97930.16;5069904;28;20048;-79
2022/01/21 05:29:36;;;;;;;12.68;5.75;;;;;;;1.44;79.53;97928.50;5070561;28;20045;-81
2022/01/21 05:32:07;;;;;;;9.50;6.28;;;;;;;1.45;79.16;97932.72;5069716;28;20060;-80
2022/01/21 05:34:35;;;;;;;14.60;5.53;;;;;;;1.45;78.99;97945.59;5069158;28;20055;-80
2022/01/21 05:37:07;;;;;;;13.30;5.97;;;;;;;1.48;79.00;97940.25;5069199;28;20465;-79
2022/01/21 05:39:35;;;;;;;84.60;41.20;;;;;;;1.48;78.58;97942.81;5068509;28;20057;-80
2022/01/21 05:42:04;;;;;;;18.48;7.53;;;;;;;1.50;79.03;97940.16;5067704;28;20063;-79
2022/01/21 05:47:18;;;;;;;22.30;6.68;;;;;;;1.47;78.89;97948.91;5068010;28;20049;-79
2022/01/21 05:49:45;;;;;;;12.68;5.65;;;;;;;1.47;77.97;97945.50;5068367;28;20060;-80
2022/01/21 05:52:17;;;;;;;12.35;6.25;;;;;;;1.42;77.43;97951.75;5067304;28;20063;-81
2022/01/21 05:54:45;;;;;;;11.02;4.63;;;;;;;1.41;77.37;97959.53;5061913;28;20041;-80
2022/01/21 05:57:16;;;;;;;11.98;4.97;;;;;;;1.40;78.07;97951.00;5064148;28;20044;-80
2022/01/21 05:59:44;;;;;;;14.65;5.20;;;;;;;1.42;78.11;97956.03;5061693;28;20442;-80
2022/01/21 06:02:12;;;;;;;10.95;5.40;;;;;;;1.41;78.03;97962.13;5062791;28;20057;-79
2022/01/21 06:04:44;;;;;;;11.70;5.20;;;;;;;1.41;78.34;97967.25;5068041;28;20056;-82
2022/01/21 06:07:12;;;;;;;10.88;5.10;;;;;;;1.42;78.64;97966.31;5048450;28;20049;-82
2022/01/21 06:09:39;;;;;;;9.95;4.80;;;;;;;1.41;78.66;97972.41;5046934;28;20056;-81
2022/01/21 06:12:08;;;;;;;11.98;6.50;;;;;;;1.41;78.28;97964.69;5064591;28;20055;-84
2022/01/21 06:14:36;;;;;;;14.48;5.63;;;;;;;1.40;78.52;97963.00;5068054;28;20061;-82
2022/01/21 06:17:05;;;;;;;13.43;6.45;;;;;;;1.40;78.14;97955.31;5066171;28;20151;-81
2022/01/21 06:19:32;;;;;;;13.93;6.15;;;;;;;1.38;77.97;97957.16;5065030;28;20045;-81
2022/01/21 06:22:01;;;;;;;12.75;5.85;;;;;;;1.37;77.34;97958.88;5068935;28;20055;-83
2022/01/21 06:24:29;;;;;;;11.70;5.03;;;;;;;1.35;77.20;97960.72;5069604;28;20356;-81
2022/01/21 06:27:00;;;;;;;11.65;5.32;;;;;;;1.32;77.45;97960.91;5067415;28;20056;-79
2022/01/21 06:29:28;;;;;;;15.60;5.72;;;;;;;1.31;77.75;97967.00;5068392;28;20049;-82
2022/01/21 06:31:56;;;;;;;14.60;6.47;;;;;;;1.32;77.98;97966.06;5068862;28;20045;-81
2022/01/21 06:34:24;;;;;;;14.25;5.80;;;;;;;1.33;77.81;97972.00;5066310;28;20110;-78
2022/01/21 06:36:51;;;;;;;14.65;6.30;;;;;;;1.33;78.09;97969.44;5061785;28;20041;-80
2022/01/21 06:39:20;;;;;;;14.48;7.32;;;;;;;1.34;78.10;97978.81;5063333;28;20048;-81
2022/01/21 06:41:48;;;;;;;13.93;5.38;;;;;;;1.36;77.92;97974.44;5066442;28;20045;-80
2022/01/21 06:44:16;;;;;;;14.27;5.78;;;;;;;1.36;77.98;97977.00;5065357;28;20049;-79
2022/01/21 06:46:43;;;;;;;10.77;6.20;;;;;;;1.37;78.03;97988.91;5065190;28;20056;-84
2022/01/21 06:49:11;;;;;;;13.68;5.45;;;;;;;1.36;78.23;97998.38;5064401;28;20495;-83
2022/01/21 06:51:39;;;;;;;10.25;6.00;;;;;;;1.37;78.25;97999.19;5065844;28;20052;-82
2022/01/21 06:54:06;;;;;;;13.82;5.97;;;;;;;1.38;78.24;97995.72;5063464;28;20469;-80
2022/01/21 06:56:36;;;;;;;13.70;5.72;;;;;;;1.38;77.83;98000.88;5060683;28;20045;-81
2022/01/21 06:59:03;;;;;;;17.17;6.20;;;;;;;1.34;77.81;97994.25;5060754;28;20056;-84
2022/01/21 07:01:31;;;;;;;12.82;6.07;;;;;;;1.32;77.83;98001.22;5060884;28;20491;-83
2022/01/21 07:03:59;;;;;;;9.38;5.90;;;;;;;1.29;77.96;97997.09;5059920;28;20055;-82
2022/01/21 07:06:26;;;;;;;11.95;6.55;;;;;;;1.27;78.28;97998.06;5061982;28;20052;-82
2022/01/21 07:08:54;;;;;;;18.88;6.28;;;;;;;1.28;78.18;97999.75;5060510;28;20053;-82
2022/01/21 07:11:22;;;;;;;13.68;5.80;;;;;;;1.27;77.83;98004.06;5061339;28;20116;-83
2022/01/21 07:13:50;;;;;;;12.13;6.00;;;;;;;1.27;78.28;98009.22;5060846;28;20052;-81
2022/01/21 07:16:18;;;;;;;14.18;5.32;;;;;;;1.29;78.95;98009.09;5060948;28;20053;-79
2022/01/21 07:18:46;;;;;;;16.08;5.75;;;;;;;1.30;78.91;98013.34;5060541;28;20041;-79
2022/01/21 07:21:13;;;;;;;11.23;5.95;;;;;;;1.31;78.72;98009.84;5061807;28;20056;-84
2022/01/21 07:23:41;;;;;;;12.88;5.50;;;;;;;1.32;78.66;98012.34;5061428;28;20422;-79
2022/01/21 07:26:09;;;;;;;11.27;5.80;;;;;;;1.35;78.48;98013.88;5062800;28;20056;-80
2022/01/21 07:28:36;;;;;;;15.52;6.45;;;;;;;1.37;78.29;98010.31;5062123;28;20052;-84
2022/01/21 07:31:07;;;;;;;13.13;6.65;;;;;;;1.35;78.39;98006.19;5062174;28;20542;-90
2022/01/21 07:33:36;;;;;;;13.65;5.93;;;;;;;1.36;78.61;98010.41;5058888;28;20056;-83
2022/01/21 07:36:05;;;;;;;14.18;6.57;;;;;;;1.35;77.99;98013.88;5059013;28;20048;-89
2022/01/21 07:38:33;;;;;;;13.40;6.20;;;;;;;1.35;78.53;98012.13;5059863;28;20041;-82
2022/01/21 07:41:00;;;;;;;17.73;7.93;;;;;;;1.37;77.60;98020.59;5059640;28;20057;-81
2022/01/21 07:43:28;;;;;;;17.08;7.40;;;;;;;1.37;77.20;98028.31;5058595;28;20049;-80
2022/01/21 07:45:55;;;;;;;17.25;7.82;;;;;;;1.37;77.48;98020.59;5059416;28;20087;-82
2022/01/21 07:48:24;;;;;;;14.82;6.22;;;;;;;1.38;77.76;98016.31;5058881;28;20053;-81
2022/01/21 07:50:52;;;;;;;15.88;7.25;;;;;;;1.39;77.18;98023.91;5058162;28;20048;-83
2022/01/21 07:53:19;;;;;;;14.48;6.35;;;;;;;1.37;76.43;98019.78;5057176;28;20486;-80
2022/01/21 07:55:50;;;;;;;13.32;6.72;;;;;;;1.36;76.98;98024.09;5058315;28;20060;-79
2022/01/21 07:58:18;;;;;;;11.80;6.03;;;;;;;1.40;76.96;98019.59;5058117;28;20056;-81
2022/01/21 08:00:46;;;;;;;19.25;6.32;;;;;;;1.38;75.57;98018.88;5058131;28;20049;-80
2022/01/21 08:03:15;;;;;;;10.60;6.45;;;;;;;1.40;77.02;98015.28;5057301;28;20060;-80
2022/01/21 08:05:46;;;;;;;19.67;6.30;;;;;;;1.46;77.25;98011.50;5058782;28;20045;-82
2022/01/21 08:08:14;;;;;;;16.33;6.90;;;;;;;1.48;76.75;98007.09;5061043;28;20410;-85
2022/01/21 08:10:41;;;;;;;9.88;5.47;;;;;;;1.52;76.97;98002.63;5059267;28;20049;-81
2022/01/21 08:13:09;;;;;;;11.05;6.13;;;;;;;1.55;76.59;98000.72;5058344;28;20442;-83
2022/01/21 08:15:37;;;;;;;12.05;5.97;;;;;;;1.56;76.31;98010.06;5058310;28;20052;-81
2022/01/21 08:18:05;;;;;;;10.27;5.78;;;;;;;1.58;76.59;98013.38;5057690;28;20048;-79
2022/01/21 08:20:33;;;;;;;17.88;6.53;;;;;;;1.56;75.66;98006.69;5058523;28;20049;-87
2022/01/21 08:23:02;;;;;;;17.98;6.97;;;;;;;1.53;77.02;98011.97;5058345;28;20072;-84
2022/01/21 08:25:30;;;;;;;13.13;6.00;;;;;;;1.54;76.11;98011.91;5058193;28;20056;-78
2022/01/21 08:27:58;;;;;;;12.20;6.07;;;;;;;1.51;74.81;98014.66;5061230;28;20060;-87
2022/01/21 08:30:25;;;;;;;16.02;7.68;;;;;;;1.51;75.01;98016.38;5060381;28;20434;-84
2022/01/21 08:32:53;;;;;;;12.00;5.70;;;;;;;1.48;74.66;98022.53;5060476;28;20049;-81
2022/01/21 08:35:20;;;;;;;17.42;7.57;;;;;;;1.45;74.73;98015.00;5077431;22;20052;-78
2022/01/21 08:37:48;;;;;;;15.52;6.82;;;;;;;1.48;75.39;98016.56;5056243;28;20049;-77
2022/01/21 08:40:17;;;;;;;13.43;7.22;;;;;;;1.50;76.29;98012.19;5057501;28;20056;-77
2022/01/21 08:42:44;;;;;;;17.05;6.93;;;;;;;1.53;76.25;98007.69;5057120;28;20052;-76
2022/01/21 08:45:12;;;;;;;10.48;5.72;;;;;;;1.58;75.92;98008.22;5056995;28;20407;-77
2022/01/21 08:47:41;;;;;;;12.50;6.68;;;;;;;1.66;76.10;98015.47;5056996;28;20049;-77
2022/01/21 08:50:11;;;;;;;11.32;6.60;;;;;;;1.77;76.14;98009.69;5057097;28;20045;-77
2022/01/21 08:52:41;;;;;;;16.77;7.47;;;;;;;1.83;76.10;98019.63;5057337;28;20060;-76
2022/01/21 08:55:11;;;;;;;14.82;7.50;;;;;;;1.90;75.94;98022.66;5056700;28;20495;-77
2022/01/21 08:57:43;;;;;;;16.17;6.72;;;;;;;1.94;75.18;98024.94;5057041;28;20534;-75
2022/01/21 09:00:14;;;;;;;13.43;7.22;;;;;;;1.99;74.93;98033.22;5057145;28;20060;-75
2022/01/21 09:02:42;;;;;;;12.88;6.60;;;;;;;2.11;75.38;98036.81;5057049;28;20052;-75
2022/01/21 09:05:10;;;;;;;17.00;6.70;;;;;;;2.20;74.86;98035.41;5056736;28;20049;-75
2022/01/21 09:07:38;;;;;;;11.93;6.50;;;;;;;2.30;74.56;98033.13;5056529;28;20041;-75
2022/01/21 09:10:07;;;;;;;12.02;6.07;;;;;;;2.39;73.44;98043.66;5056104;28;20048;-75
2022/01/21 09:12:35;;;;;;;12.98;7.05;;;;;;;2.45;73.68;98047.63;5056327;28;20052;-75
2022/01/21 09:15:06;;;;;;;13.90;6.43;;;;;;;2.48;72.33;98055.16;5056199;28;20052;-74
2022/01/21 09:17:36;;;;;;;12.48;6.72;;;;;;;2.56;72.35;98057.22;5056248;28;20589;-75
2022/01/21 09:20:04;;;;;;;15.88;7.15;;;;;;;2.63;72.81;98055.94;5056071;28;20049;-75
2022/01/21 09:22:32;;;;;;;17.85;7.00;;;;;;;2.64;73.13;98060.97;5056083;28;20059;-76
2022/01/21 09:24:59;;;;;;;12.75;6.65;;;;;;;2.68;73.48;98066.78;5057105;28;20072;-75
2022/01/21 09:27:27;;;;;;;15.05;7.35;;;;;;;2.72;73.26;98068.25;5057220;28;20048;-75
2022/01/21 09:29:54;;;;;;;12.50;6.47;;;;;;;2.75;73.53;98057.72;5056801;28;20049;-74
2022/01/21 09:32:23;;;;;;;14.93;7.53;;;;;;;2.77;73.00;98065.38;5057188;28;20053;-74
2022/01/21 09:34:51;;;;;;;13.80;7.03;;;;;;;2.70;71.53;98067.50;5056383;28;20053;-74
2022/01/21 09:37:18;;;;;;;17.23;8.15;;;;;;;2.72;72.40;98070.00;5055194;28;20430;-78
2022/01/21 09:39:46;;;;;;;13.60;8.25;;;;;;;2.77;72.96;98067.94;5055058;28;20049;-76
2022/01/21 09:42:15;;;;;;;14.82;6.60;;;;;;;2.76;71.86;98069.72;5054765;28;20060;-76
2022/01/21 09:44:44;;;;;;;15.35;8.68;;;;;;;2.76;70.23;98080.00;5054722;28;20054;-76
2022/01/21 09:47:15;;;;;;;16.83;8.75;;;;;;;2.76;69.78;98074.03;5055031;28;20090;-75
2022/01/21 09:49:46;;;;;;;13.13;8.05;;;;;;;2.75;69.43;98070.63;5055242;28;20068;-76
2022/01/21 09:52:16;;;;;;;24.00;8.57;;;;;;;2.76;68.95;98063.72;5054714;28;20048;-74
2022/01/21 09:54:48;;;;;;;19.33;10.07;;;;;;;2.78;70.48;98062.72;5055204;28;20450;-75
2022/01/21 09:57:19;;;;;;;16.60;8.43;;;;;;;2.79;69.85;98064.34;5054374;28;20053;-74
2022/01/21 09:59:46;;;;;;;22.85;10.82;;;;;;;2.82;70.81;98069.31;5054403;28;20049;-74
2022/01/21 10:02:17;;;;;;;17.23;7.22;;;;;;;2.90;70.81;98076.56;5053917;28;20494;-75
2022/01/21 10:04:49;;;;;;;16.98;7.63;;;;;;;2.94;70.24;98079.78;5055188;28;20076;-74
2022/01/21 10:07:20;;;;;;;15.73;7.93;;;;;;;2.95;69.54;98071.09;5055102;28;20045;-75
2022/01/21 10:09:49;;;;;;;13.40;6.93;;;;;;;2.94;71.43;98084.94;5055423;28;20056;-76
2022/01/21 10:12:18;;;;;;;12.40;6.45;;;;;;;2.92;69.81;98084.19;5055183;28;20092;-76
2022/01/21 10:14:46;;;;;;;13.15;6.05;;;;;;;2.90;69.24;98079.13;5055183;28;20052;-75
2022/01/21 10:17:14;;;;;;;12.85;7.22;;;;;;;2.85;69.79;98083.75;5055071;28;20076;-76
2022/01/21 10:19:45;;;;;;;13.90;6.70;;;;;;;2.78;69.48;98078.16;5055150;28;20189;-75
2022/01/21 10:22:19;;;;;;;8.95;6.18;;;;;;;2.78;71.71;98080.75;5060803;28;20053;-78
2022/01/21 10:24:54;;;;;;;16.10;8.32;;;;;;;2.78;70.45;98075.59;5062787;28;20049;-79
2022/01/21 10:27:23;;;;;;;12.65;6.05;;;;;;;2.75;70.06;98068.03;5062668;28;20053;-78
2022/01/21 10:29:51;;;;;;;16.58;7.50;;;;;;;2.74;70.66;98056.09;5062820;28;20503;-78
2022/01/21 10:32:32;;;;;;;17.45;6.47;;;;;;;2.80;71.93;98066.00;5061928;28;20053;-77
2022/01/21 10:35:22;;;;;;;15.48;7.97;;;;;;;2.86;71.31;98065.63;5057968;28;20048;-78
2022/01/21 10:37:51;;;;;;;19.10;7.10;;;;;;;2.87;71.15;98064.69;5058242;28;20067;-77
2022/01/21 10:40:21;;;;;;;16.20;7.65;;;;;;;2.86;70.85;98063.06;5058917;28;20504;-75
2022/01/21 10:42:50;;;;;;;19.52;7.28;;;;;;;2.84;70.50;98064.06;5059095;28;20045;-76
2022/01/21 10:45:17;;;;;;;34.15;13.25;;;;;;;2.82;70.31;98064.16;5060650;28;20052;-76
2022/01/21 10:47:49;;;;;;;30.05;13.93;;;;;;;2.82;70.58;98065.91;5060648;28;20060;-80
2022/01/21 10:50:20;;;;;;;18.83;9.63;;;;;;;2.82;70.64;98065.91;5058636;28;20584;-77
2022/01/21 10:52:51;;;;;;;25.58;8.20;;;;;;;2.85;71.86;98069.13;5058447;28;20495;-77
2022/01/21 10:55:32;;;;;;;16.00;8.45;;;;;;;2.92;70.40;98073.88;5058492;28;20509;-77
2022/01/21 10:58:08;;;;;;;15.00;8.82;;;;;;;2.96;72.66;98075.34;5059272;28;20056;-77
2022/01/21 11:00:36;;;;;;;27.17;10.63;;;;;;;2.95;70.58;98074.53;5057514;28;20102;-76
2022/01/21 11:03:12;;;;;;;19.98;10.18;;;;;;;2.98;71.66;98071.75;5058133;28;20060;-80
2022/01/21 11:05:45;;;;;;;21.77;8.43;;;;;;;2.97;71.16;98077.00;5057892;28;20044;-77
2022/01/21 11:08:14;;;;;;;17.67;8.13;;;;;;;2.93;70.98;98078.09;5055301;28;20498;-77
2022/01/21 11:10:50;;;;;;;17.45;7.00;;;;;;;2.87;69.69;98071.59;5055523;28;20049;-76
2022/01/21 11:13:39;;;;;;;14.05;7.10;;;;;;;2.86;72.85;98075.94;5055790;28;20052;-75
2022/01/21 11:16:19;;;;;;;21.02;8.43;;;;;;;2.86;70.16;98073.38;5058769;28;20060;-81
2022/01/21 11:19:09;;;;;;;10.70;6.53;;;;;;;2.85;70.58;98071.69;5057784;28;20507;-80
2022/01/21 11:21:49;;;;;;;13.13;6.38;;;;;;;2.83;70.57;98065.81;5059095;28;20049;-78
2022/01/21 11:24:19;;;;;;;13.38;6.78;;;;;;;2.80;71.47;98071.16;5058126;28;20572;-81
2022/01/21 11:27:07;;;;;;;11.52;6.80;;;;;;;2.82;73.31;98066.75;5059028;28;20051;-81
2022/01/21 11:29:35;;;;;;;17.27;7.72;;;;;;;2.78;70.76;98062.72;5058799;28;20491;-77
2022/01/21 11:32:04;;;;;;;22.73;9.98;;;;;;;2.73;72.01;98069.06;5058826;28;20505;-79
2022/01/21 11:34:32;;;;;;;19.67;8.60;;;;;;;2.68;71.66;98069.34;5056892;28;20056;-79
2022/01/21 11:37:01;;;;;;;38.38;20.63;;;;;;;2.64;71.77;98065.31;5055537;28;20049;-78
2022/01/21 11:39:30;;;;;;;25.77;12.95;;;;;;;2.61;71.59;98056.03;5055062;28;20049;-77
2022/01/21 11:42:00;;;;;;;17.08;8.95;;;;;;;2.60;72.48;98058.69;5055379;28;20052;-80
2022/01/21 11:44:30;;;;;;;18.15;8.65;;;;;;;2.59;72.12;98054.47;5054571;28;20083;-78
2022/01/21 11:47:16;;;;;;;16.95;8.48;;;;;;;2.57;72.41;98058.91;5054923;28;20053;-79
2022/01/21 11:49:55;;;;;;;20.27;8.07;;;;;;;2.55;70.79;98048.69;5055824;28;20053;-77
2022/01/21 11:52:23;;;;;;;19.45;7.97;;;;;;;2.53;71.36;98040.22;5054318;28;20053;-80
2022/01/21 11:54:52;;;;;;;16.95;7.38;;;;;;;2.50;70.71;98043.00;5053620;28;20053;-77
2022/01/21 11:57:29;;;;;;;13.57;7.57;;;;;;;2.46;70.13;98037.19;5052760;28;20049;-77
2022/01/21 12:00:04;;;;;;;20.98;9.52;;;;;;;2.49;70.92;98041.31;5052900;28;20064;-80
2022/01/21 12:02:35;;;;;;;17.85;9.50;;;;;;;2.54;71.52;98033.34;5054147;28;20131;-78
2022/01/21 12:05:05;;;;;;;16.52;8.00;;;;;;;2.59;71.71;98026.13;5054822;28;20068;-77
2022/01/21 12:07:54;;;;;;;14.80;7.00;;;;;;;2.61;71.63;98035.41;5053985;28;20061;-80
2022/01/21 12:10:31;;;;;;;17.45;10.93;;;;;;;2.62;69.49;98031.09;5053627;28;20051;-79
2022/01/21 12:13:04;;;;;;;22.25;7.45;;;;;;;2.59;69.64;98031.28;5054380;28;20056;-79
2022/01/21 12:16:17;;;;;;;;;;;;;;;2.56;69.24;98024.59;5054714;28;20437;-80
2022/01/21 12:22:15;;;;;;;18.23;9.02;;;;;;;2.50;71.84;98021.56;5051575;28;20060;-80